createdAt,value
2022-12-29T00:12:49.331Z,89.3
2022-12-29T00:32:49.544Z,90.1
2022-12-29T00:52:49.511Z,90.0
2022-12-29T01:12:49.509Z,89.6
2022-12-29T01:32:49.343Z,88.9
2022-12-29T01:52:49.528Z,89.2
2022-12-29T02:12:49.365Z,88.8
2022-12-29T02:32:49.445Z,88.7
2022-12-29T02:52:49.444Z,86.1
2022-12-29T03:12:49.419Z,84.7
2022-12-29T03:32:49.340Z,80.4
2022-12-29T03:52:49.406Z,78.1
2022-12-29T04:12:49.412Z,76.0
2022-12-29T04:32:49.602Z,75.0
2022-12-29T04:52:49.372Z,73.3
2022-12-29T05:12:49.336Z,69.6
2022-12-29T05:32:49.492Z,67.7
2022-12-29T05:52:49.455Z,69.0
2022-12-29T06:12:49.504Z,65.5
2022-12-29T06:32:49.259Z,66.2
2022-12-29T06:52:49.477Z,65.4
2022-12-29T07:12:49.308Z,66.2
2022-12-29T07:32:49.451Z,67.8
2022-12-29T07:52:49.266Z,67.4
2022-12-29T08:12:49.367Z,65.3
2022-12-29T08:32:49.423Z,64.3
2022-12-29T08:52:49.471Z,63.4
2022-12-29T09:12:49.178Z,63.4
2022-12-29T09:32:49.215Z,65.0
2022-12-29T09:52:49.349Z,63.0
2022-12-29T10:12:49.341Z,61.2
2022-12-29T10:32:49.145Z,61.0
2022-12-29T10:52:49.171Z,59.7
2022-12-29T11:12:49.180Z,58.1
2022-12-29T11:32:49.096Z,58.8
2022-12-29T11:52:49.113Z,57.7
2022-12-29T12:12:49.135Z,61.4
2022-12-29T12:32:49.156Z,58.8
2022-12-29T12:52:49.068Z,58.9
2022-12-29T13:12:49.091Z,61.6
2022-12-29T13:32:49.152Z,64.8
2022-12-29T13:52:49.155Z,67.2
2022-12-29T14:12:49.032Z,68.8
2022-12-29T14:32:49.056Z,69.5
2022-12-29T15:12:48.974Z,72.8
2022-12-29T15:32:49.007Z,73.4
2022-12-29T15:52:49.015Z,70.9
2022-12-29T16:12:48.924Z,72.7
2022-12-29T16:32:48.938Z,74.8
2022-12-29T16:52:48.950Z,74.6
2022-12-29T17:12:48.961Z,76.5
2022-12-29T17:32:48.879Z,75.7
2022-12-29T17:52:48.893Z,77.6
2022-12-29T18:12:48.912Z,76.0
2022-12-29T18:52:48.840Z,74.4
2022-12-29T19:12:48.859Z,72.9
2022-12-29T19:32:48.874Z,75.4
2022-12-29T19:52:48.889Z,75.1
2022-12-29T20:12:48.797Z,73.7
2022-12-29T20:32:48.824Z,72.8
2022-12-29T20:52:48.846Z,78.9
2022-12-29T21:12:48.914Z,79.4
2022-12-29T21:32:48.783Z,81.5
2022-12-29T21:52:48.807Z,81.7
2022-12-29T22:12:48.792Z,81.4
2022-12-29T22:32:48.843Z,80.5
2022-12-29T22:52:48.719Z,81.1
2022-12-29T23:12:48.738Z,82.0
2022-12-29T23:32:48.737Z,82.3
2022-12-29T23:52:48.761Z,83.5
